Brandy Bar — WDF7323 — position and weather

sailwx.info

Track history (hours):
 
Tides and Currents Weather Stations Pressure Air Temp Water Temp Dewpoint Dewpoint Depression Visibility Wind Speed Wind Dir Waves Ship Positions

Brandy Bar

Owner: Brandy Bar, Tiburon, CA. More information available from US FCC via Universal Licensing System and Coast Guard Vessel Documentation Center.

Last reported at 2016-Jul-24 21:28 UTC. Time now 2016-Jul-25 06:14 UTC.
Position N 38°02' W 121°51'.

Type: Towing. MMSI: 367483310.

Date/timePositionNaut miles runAvg speedWind from/ knotsBaromVisibWave heightAir tempDewpointWater temp
2016-Jul-24 21:28N 38°02' W 121°51'0 0.0
2016-Jul-24 20:29N 38°02' W 121°51'0 0.0
2016-Jul-24 19:33N 38°02' W 121°51'  
2016-Jul-19 16:32N 38°01' W 121°47'3 3.3
2016-Jul-19 15:33N 38°02' W 121°51'  
2016-Jul-16 23:23N 38°02' W 121°51'14 3.3
2016-Jul-16 19:10N 38°02' W 122°08'4 6.8
2016-Jul-16 18:33N 38°04' W 122°13'7 7.0
2016-Jul-16 17:33N 38°02' W 122°22'7 4.8
2016-Jul-16 16:10N 37°58' W 122°29'2 0.2
2016-Jul-16 02:23N 37°59' W 122°26'5 5.9
2016-Jul-16 01:34N 38°02' W 122°21'7 7.2
2016-Jul-16 00:32N 38°03' W 122°12'17 4.2
2016-Jul-15 20:33N 38°02' W 121°51'0 0.4
2016-Jul-15 19:22N 38°02' W 121°51'0 0.0
2016-Jul-15 18:33N 38°02' W 121°51'0 0.0
2016-Jul-15 17:34N 38°02' W 121°51'0 0.4
2016-Jul-15 16:32N 38°02' W 121°51'0 0.0
2016-Jul-15 14:18N 38°02' W 121°51'0 0.0
2016-Jul-15 13:33N 38°02' W 121°51'0 0.0
2016-Jul-15 12:34N 38°02' W 121°51'0 0.0
2016-Jul-15 11:33N 38°02' W 121°51'0 0.0
2016-Jul-15 10:33N 38°02' W 121°51'0 0.0
2016-Jul-15 09:33N 38°02' W 121°51'0 0.0
2016-Jul-15 08:33N 38°02' W 121°51'0 0.0
2016-Jul-15 07:33N 38°02' W 121°51'0 0.0
2016-Jul-15 06:33N 38°02' W 121°51'0 0.0
2016-Jul-15 05:33N 38°02' W 121°51'0 0.0
2016-Jul-15 04:33N 38°02' W 121°51'0 0.0
2016-Jul-15 03:33N 38°02' W 121°51'0 0.0
2016-Jul-15 02:33N 38°02' W 121°51'0 0.0
2016-Jul-15 01:33N 38°02' W 121°51'3 2.3
2016-Jul-15 00:14N 38°03' W 121°55'11 6.3
2016-Jul-14 22:33N 38°02' W 122°08'6 6.2
2016-Jul-14 21:34N 38°03' W 122°16'  
Track history (hours):
 
Tides and Currents Weather Stations Pressure Air Temp Water Temp Dewpoint Dewpoint Depression Visibility Wind Speed Wind Dir Waves Ship Positions

Brandy Bar

Owner: Brandy Bar, Tiburon, CA. More information available from US FCC via Universal Licensing System and Coast Guard Vessel Documentation Center.

Last reported at 2016-Jul-24 21:28 UTC. Time now 2016-Jul-25 06:14 UTC.
Position N 38°02' W 121°51'.

Type: Towing. MMSI: 367483310.

Date/timePositionNaut miles runAvg speedWind from/ knotsBaromVisibWave heightAir tempDewpointWater temp
2016-Jul-24 21:28N 38°02' W 121°51'0 0.0
2016-Jul-24 20:29N 38°02' W 121°51'0 0.0
2016-Jul-24 19:33N 38°02' W 121°51'  
2016-Jul-19 16:32N 38°01' W 121°47'3 3.3
2016-Jul-19 15:33N 38°02' W 121°51'  
2016-Jul-16 23:23N 38°02' W 121°51'14 3.3
2016-Jul-16 19:10N 38°02' W 122°08'4 6.8
2016-Jul-16 18:33N 38°04' W 122°13'7 7.0
2016-Jul-16 17:33N 38°02' W 122°22'7 4.8
2016-Jul-16 16:10N 37°58' W 122°29'2 0.2
2016-Jul-16 02:23N 37°59' W 122°26'5 5.9
2016-Jul-16 01:34N 38°02' W 122°21'7 7.2
2016-Jul-16 00:32N 38°03' W 122°12'17 4.2
2016-Jul-15 20:33N 38°02' W 121°51'0 0.4
2016-Jul-15 19:22N 38°02' W 121°51'0 0.0
2016-Jul-15 18:33N 38°02' W 121°51'0 0.0
2016-Jul-15 17:34N 38°02' W 121°51'0 0.4
2016-Jul-15 16:32N 38°02' W 121°51'0 0.0
2016-Jul-15 14:18N 38°02' W 121°51'0 0.0
2016-Jul-15 13:33N 38°02' W 121°51'0 0.0
2016-Jul-15 12:34N 38°02' W 121°51'0 0.0
2016-Jul-15 11:33N 38°02' W 121°51'0 0.0
2016-Jul-15 10:33N 38°02' W 121°51'0 0.0
2016-Jul-15 09:33N 38°02' W 121°51'0 0.0
2016-Jul-15 08:33N 38°02' W 121°51'0 0.0
2016-Jul-15 07:33N 38°02' W 121°51'0 0.0
2016-Jul-15 06:33N 38°02' W 121°51'0 0.0
2016-Jul-15 05:33N 38°02' W 121°51'0 0.0
2016-Jul-15 04:33N 38°02' W 121°51'0 0.0
2016-Jul-15 03:33N 38°02' W 121°51'0 0.0
2016-Jul-15 02:33N 38°02' W 121°51'0 0.0
2016-Jul-15 01:33N 38°02' W 121°51'3 2.3
2016-Jul-15 00:14N 38°03' W 121°55'11 6.3
2016-Jul-14 22:33N 38°02' W 122°08'6 6.2
2016-Jul-14 21:34N 38°03' W 122°16'  

Dump ship's entire track history